sensor_id;sensor_type;location;lat;lon;timestamp;P1;durP1;ratioP1;P2;durP2;ratioP2
357;SDS011;167;47.558;7.602;2023-12-14T00:00:30;0.80;;;0.80;;
357;SDS011;167;47.558;7.602;2023-12-14T00:02:56;0.60;;;0.60;;
357;SDS011;167;47.558;7.602;2023-12-14T00:05:22;0.77;;;0.50;;
357;SDS011;167;47.558;7.602;2023-12-14T00:07:48;0.50;;;0.50;;
357;SDS011;167;47.558;7.602;2023-12-14T00:10:14;0.40;;;0.40;;
357;SDS011;167;47.558;7.602;2023-12-14T00:12:42;0.30;;;0.30;;
357;SDS011;167;47.558;7.602;2023-12-14T00:15:08;2.93;;;0.60;;
357;SDS011;167;47.558;7.602;2023-12-14T00:17:35;0.47;;;0.40;;
357;SDS011;167;47.558;7.602;2023-12-14T00:20:01;0.30;;;0.30;;
357;SDS011;167;47.558;7.602;2023-12-14T00:22:28;0.30;;;0.30;;
357;SDS011;167;47.558;7.602;2023-12-14T00:24:54;0.93;;;0.40;;
357;SDS011;167;47.558;7.602;2023-12-14T00:27:19;0.30;;;0.30;;
357;SDS011;167;47.558;7.602;2023-12-14T00:29:45;0.50;;;0.50;;
357;SDS011;167;47.558;7.602;2023-12-14T00:32:11;0.87;;;0.40;;
357;SDS011;167;47.558;7.602;2023-12-14T00:34:37;0.40;;;0.40;;
357;SDS011;167;47.558;7.602;2023-12-14T00:37:03;0.67;;;0.30;;
357;SDS011;167;47.558;7.602;2023-12-14T00:39:29;0.30;;;0.30;;
357;SDS011;167;47.558;7.602;2023-12-14T00:41:55;0.37;;;0.37;;
357;SDS011;167;47.558;7.602;2023-12-14T00:44:21;0.30;;;0.30;;
357;SDS011;167;47.558;7.602;2023-12-14T00:46:47;0.50;;;0.47;;
357;SDS011;167;47.558;7.602;2023-12-14T00:49:13;0.30;;;0.30;;
357;SDS011;167;47.558;7.602;2023-12-14T00:51:39;0.30;;;0.30;;
357;SDS011;167;47.558;7.602;2023-12-14T00:54:05;0.30;;;0.30;;
357;SDS011;167;47.558;7.602;2023-12-14T00:56:32;2.40;;;0.30;;
357;SDS011;167;47.558;7.602;2023-12-14T00:58:58;0.40;;;0.40;;
357;SDS011;167;47.558;7.602;2023-12-14T01:01:24;0.30;;;0.30;;
357;SDS011;167;47.558;7.602;2023-12-14T01:03:50;0.30;;;0.30;;
357;SDS011;167;47.558;7.602;2023-12-14T01:06:16;0.40;;;0.40;;
357;SDS011;167;47.558;7.602;2023-12-14T01:08:42;0.50;;;0.40;;
357;SDS011;167;47.558;7.602;2023-12-14T01:11:08;0.40;;;0.40;;
357;SDS011;167;47.558;7.602;2023-12-14T01:13:34;0.40;;;0.40;;
357;SDS011;167;47.558;7.602;2023-12-14T01:16:00;2.63;;;0.83;;
357;SDS011;167;47.558;7.602;2023-12-14T01:18:26;0.50;;;0.50;;
357;SDS011;167;47.558;7.602;2023-12-14T01:20:52;0.30;;;0.30;;
357;SDS011;167;47.558;7.602;2023-12-14T01:23:18;0.60;;;0.60;;
357;SDS011;167;47.558;7.602;2023-12-14T01:25:44;0.50;;;0.50;;
357;SDS011;167;47.558;7.602;2023-12-14T01:28:10;0.53;;;0.40;;
357;SDS011;167;47.558;7.602;2023-12-14T01:30:38;0.50;;;0.50;;
357;SDS011;167;47.558;7.602;2023-12-14T01:33:04;0.47;;;0.47;;
357;SDS011;167;47.558;7.602;2023-12-14T01:35:30;1.03;;;0.50;;
357;SDS011;167;47.558;7.602;2023-12-14T01:37:56;0.37;;;0.37;;
357;SDS011;167;47.558;7.602;2023-12-14T01:40:22;0.40;;;0.40;;
357;SDS011;167;47.558;7.602;2023-12-14T01:42:48;0.40;;;0.40;;
357;SDS011;167;47.558;7.602;2023-12-14T01:45:14;0.47;;;0.43;;
357;SDS011;167;47.558;7.602;2023-12-14T01:47:42;0.73;;;0.43;;
357;SDS011;167;47.558;7.602;2023-12-14T01:50:08;0.30;;;0.30;;
357;SDS011;167;47.558;7.602;2023-12-14T01:52:34;0.33;;;0.33;;
357;SDS011;167;47.558;7.602;2023-12-14T01:55:00;1.40;;;0.40;;
357;SDS011;167;47.558;7.602;2023-12-14T01:57:27;0.40;;;0.40;;
357;SDS011;167;47.558;7.602;2023-12-14T01:59:53;0.30;;;0.30;;
357;SDS011;167;47.558;7.602;2023-12-14T02:02:19;1.03;;;0.40;;
357;SDS011;167;47.558;7.602;2023-12-14T02:04:45;0.50;;;0.50;;
357;SDS011;167;47.558;7.602;2023-12-14T02:07:11;0.40;;;0.40;;
357;SDS011;167;47.558;7.602;2023-12-14T02:09:37;0.50;;;0.50;;
357;SDS011;167;47.558;7.602;2023-12-14T02:12:04;0.40;;;0.40;;
357;SDS011;167;47.558;7.602;2023-12-14T02:14:30;0.50;;;0.50;;
357;SDS011;167;47.558;7.602;2023-12-14T02:16:56;3.67;;;0.47;;
357;SDS011;167;47.558;7.602;2023-12-14T02:19:22;0.57;;;0.40;;
357;SDS011;167;47.558;7.602;2023-12-14T02:21:48;0.50;;;0.50;;
357;SDS011;167;47.558;7.602;2023-12-14T02:24:14;0.60;;;0.50;;
357;SDS011;167;47.558;7.602;2023-12-14T02:26:40;0.87;;;0.87;;
357;SDS011;167;47.558;7.602;2023-12-14T02:29:06;0.50;;;0.50;;
357;SDS011;167;47.558;7.602;2023-12-14T02:31:32;2.50;;;0.53;;
357;SDS011;167;47.558;7.602;2023-12-14T02:33:58;0.30;;;0.30;;
357;SDS011;167;47.558;7.602;2023-12-14T02:36:24;0.50;;;0.50;;
357;SDS011;167;47.558;7.602;2023-12-14T02:38:50;0.80;;;0.80;;
357;SDS011;167;47.558;7.602;2023-12-14T02:41:16;0.40;;;0.40;;
357;SDS011;167;47.558;7.602;2023-12-14T02:43:42;0.90;;;0.70;;
357;SDS011;167;47.558;7.602;2023-12-14T02:46:08;0.47;;;0.47;;
357;SDS011;167;47.558;7.602;2023-12-14T02:48:36;0.40;;;0.40;;
357;SDS011;167;47.558;7.602;2023-12-14T02:51:03;0.40;;;0.40;;
357;SDS011;167;47.558;7.602;2023-12-14T02:53:29;0.53;;;0.53;;
357;SDS011;167;47.558;7.602;2023-12-14T02:55:55;0.53;;;0.53;;
357;SDS011;167;47.558;7.602;2023-12-14T02:58:21;0.60;;;0.60;;
357;SDS011;167;47.558;7.602;2023-12-14T03:00:47;0.70;;;0.43;;
357;SDS011;167;47.558;7.602;2023-12-14T03:03:13;0.60;;;0.60;;
357;SDS011;167;47.558;7.602;2023-12-14T03:05:39;0.40;;;0.40;;
357;SDS011;167;47.558;7.602;2023-12-14T03:08:05;0.53;;;0.53;;
357;SDS011;167;47.558;7.602;2023-12-14T03:10:31;3.03;;;0.50;;
357;SDS011;167;47.558;7.602;2023-12-14T03:12:57;0.50;;;0.50;;
357;SDS011;167;47.558;7.602;2023-12-14T03:15:23;0.50;;;0.50;;
357;SDS011;167;47.558;7.602;2023-12-14T03:17:49;0.70;;;0.70;;
357;SDS011;167;47.558;7.602;2023-12-14T03:20:15;1.33;;;0.80;;
357;SDS011;167;47.558;7.602;2023-12-14T03:22:41;0.70;;;0.70;;
357;SDS011;167;47.558;7.602;2023-12-14T03:25:07;1.60;;;0.70;;
357;SDS011;167;47.558;7.602;2023-12-14T03:27:34;1.03;;;0.93;;
357;SDS011;167;47.558;7.602;2023-12-14T03:30:00;0.80;;;0.80;;
357;SDS011;167;47.558;7.602;2023-12-14T03:32:26;0.80;;;0.80;;
357;SDS011;167;47.558;7.602;2023-12-14T03:34:52;1.03;;;1.03;;
357;SDS011;167;47.558;7.602;2023-12-14T03:37:18;0.83;;;0.83;;
357;SDS011;167;47.558;7.602;2023-12-14T03:39:44;1.10;;;1.07;;
357;SDS011;167;47.558;7.602;2023-12-14T03:42:10;0.97;;;0.70;;
357;SDS011;167;47.558;7.602;2023-12-14T03:44:36;1.27;;;1.17;;
357;SDS011;167;47.558;7.602;2023-12-14T03:47:02;1.23;;;1.20;;
357;SDS011;167;47.558;7.602;2023-12-14T03:49:27;1.40;;;1.40;;
357;SDS011;167;47.558;7.602;2023-12-14T03:51:53;1.80;;;1.70;;
357;SDS011;167;47.558;7.602;2023-12-14T03:54:19;2.37;;;2.27;;
357;SDS011;167;47.558;7.602;2023-12-14T03:56:45;2.20;;;2.10;;
357;SDS011;167;47.558;7.602;2023-12-14T03:59:11;1.80;;;1.70;;
357;SDS011;167;47.558;7.602;2023-12-14T04:01:38;1.60;;;1.50;;
357;SDS011;167;47.558;7.602;2023-12-14T04:04:05;1.47;;;1.37;;
357;SDS011;167;47.558;7.602;2023-12-14T04:06:31;1.60;;;1.50;;
357;SDS011;167;47.558;7.602;2023-12-14T04:08:57;1.83;;;1.73;;
357;SDS011;167;47.558;7.602;2023-12-14T04:11:23;1.50;;;1.40;;
357;SDS011;167;47.558;7.602;2023-12-14T04:13:49;3.33;;;2.90;;
357;SDS011;167;47.558;7.602;2023-12-14T04:16:21;1.50;;;1.40;;
357;SDS011;167;47.558;7.602;2023-12-14T04:18:47;2.07;;;1.97;;
357;SDS011;167;47.558;7.602;2023-12-14T04:21:13;2.10;;;2.00;;
357;SDS011;167;47.558;7.602;2023-12-14T04:23:39;1.73;;;1.47;;
357;SDS011;167;47.558;7.602;2023-12-14T04:26:05;2.03;;;1.93;;
357;SDS011;167;47.558;7.602;2023-12-14T04:28:32;1.87;;;1.50;;
357;SDS011;167;47.558;7.602;2023-12-14T04:30:58;1.60;;;1.47;;
357;SDS011;167;47.558;7.602;2023-12-14T04:33:24;1.63;;;1.53;;
357;SDS011;167;47.558;7.602;2023-12-14T04:35:50;1.20;;;1.20;;
357;SDS011;167;47.558;7.602;2023-12-14T04:38:17;1.57;;;1.47;;
357;SDS011;167;47.558;7.602;2023-12-14T04:40:43;1.53;;;1.53;;
357;SDS011;167;47.558;7.602;2023-12-14T04:43:09;1.37;;;1.37;;
357;SDS011;167;47.558;7.602;2023-12-14T04:45:35;1.43;;;1.43;;
357;SDS011;167;47.558;7.602;2023-12-14T04:48:01;1.30;;;1.30;;
357;SDS011;167;47.558;7.602;2023-12-14T04:50:27;1.30;;;1.30;;
357;SDS011;167;47.558;7.602;2023-12-14T04:52:53;1.47;;;1.37;;
357;SDS011;167;47.558;7.602;2023-12-14T04:55:19;1.40;;;1.40;;
357;SDS011;167;47.558;7.602;2023-12-14T04:57:45;1.47;;;1.37;;
357;SDS011;167;47.558;7.602;2023-12-14T05:00:11;2.77;;;1.37;;
357;SDS011;167;47.558;7.602;2023-12-14T05:02:37;1.23;;;1.13;;
357;SDS011;167;47.558;7.602;2023-12-14T05:05:04;0.97;;;0.97;;
357;SDS011;167;47.558;7.602;2023-12-14T05:07:30;1.03;;;1.03;;
357;SDS011;167;47.558;7.602;2023-12-14T05:09:56;1.00;;;1.00;;
357;SDS011;167;47.558;7.602;2023-12-14T05:12:22;1.07;;;1.07;;
357;SDS011;167;47.558;7.602;2023-12-14T05:14:50;1.50;;;1.40;;
357;SDS011;167;47.558;7.602;2023-12-14T05:17:16;1.00;;;1.00;;
357;SDS011;167;47.558;7.602;2023-12-14T05:19:42;1.10;;;1.10;;
357;SDS011;167;47.558;7.602;2023-12-14T05:22:08;0.90;;;0.90;;
357;SDS011;167;47.558;7.602;2023-12-14T05:24:34;1.10;;;1.10;;
357;SDS011;167;47.558;7.602;2023-12-14T05:27:00;1.00;;;1.00;;
357;SDS011;167;47.558;7.602;2023-12-14T05:29:26;1.00;;;1.00;;
357;SDS011;167;47.558;7.602;2023-12-14T05:31:52;1.80;;;0.90;;
357;SDS011;167;47.558;7.602;2023-12-14T05:34:18;1.33;;;1.00;;
357;SDS011;167;47.558;7.602;2023-12-14T05:36:44;1.50;;;1.40;;
357;SDS011;167;47.558;7.602;2023-12-14T05:39:10;0.80;;;0.80;;
357;SDS011;167;47.558;7.602;2023-12-14T05:41:42;1.23;;;1.20;;
357;SDS011;167;47.558;7.602;2023-12-14T05:44:08;3.23;;;1.30;;
357;SDS011;167;47.558;7.602;2023-12-14T05:46:34;0.90;;;0.90;;
357;SDS011;167;47.558;7.602;2023-12-14T05:49:01;1.37;;;0.90;;
357;SDS011;167;47.558;7.602;2023-12-14T05:51:30;1.23;;;1.23;;
357;SDS011;167;47.558;7.602;2023-12-14T05:53:56;1.63;;;1.40;;
357;SDS011;167;47.558;7.602;2023-12-14T05:56:23;1.00;;;1.00;;
357;SDS011;167;47.558;7.602;2023-12-14T05:58:49;0.97;;;0.97;;
357;SDS011;167;47.558;7.602;2023-12-14T06:01:18;1.80;;;1.23;;
357;SDS011;167;47.558;7.602;2023-12-14T06:03:44;1.90;;;1.80;;
357;SDS011;167;47.558;7.602;2023-12-14T06:06:11;1.10;;;1.00;;
357;SDS011;167;47.558;7.602;2023-12-14T06:08:38;3.43;;;1.70;;
357;SDS011;167;47.558;7.602;2023-12-14T06:11:04;1.80;;;1.70;;
357;SDS011;167;47.558;7.602;2023-12-14T06:13:34;1.27;;;1.17;;
357;SDS011;167;47.558;7.602;2023-12-14T06:16:00;1.40;;;1.40;;
357;SDS011;167;47.558;7.602;2023-12-14T06:18:26;1.93;;;1.83;;
357;SDS011;167;47.558;7.602;2023-12-14T06:20:52;1.37;;;1.27;;
357;SDS011;167;47.558;7.602;2023-12-14T06:23:18;2.03;;;1.90;;
357;SDS011;167;47.558;7.602;2023-12-14T06:25:44;2.20;;;2.10;;
357;SDS011;167;47.558;7.602;2023-12-14T06:28:10;1.80;;;1.70;;
357;SDS011;167;47.558;7.602;2023-12-14T06:30:37;2.07;;;1.77;;
357;SDS011;167;47.558;7.602;2023-12-14T06:33:03;1.60;;;1.60;;
357;SDS011;167;47.558;7.602;2023-12-14T06:35:29;2.10;;;2.00;;
357;SDS011;167;47.558;7.602;2023-12-14T06:37:55;1.90;;;1.80;;
357;SDS011;167;47.558;7.602;2023-12-14T06:40:21;2.07;;;1.93;;
357;SDS011;167;47.558;7.602;2023-12-14T06:42:47;2.37;;;2.20;;
357;SDS011;167;47.558;7.602;2023-12-14T06:45:14;2.13;;;2.03;;
357;SDS011;167;47.558;7.602;2023-12-14T06:47:40;6.97;;;2.23;;
357;SDS011;167;47.558;7.602;2023-12-14T06:50:08;2.40;;;2.20;;
357;SDS011;167;47.558;7.602;2023-12-14T06:52:34;2.43;;;2.30;;
357;SDS011;167;47.558;7.602;2023-12-14T06:55:00;3.37;;;3.03;;
357;SDS011;167;47.558;7.602;2023-12-14T06:57:26;2.27;;;2.17;;
357;SDS011;167;47.558;7.602;2023-12-14T06:59:54;2.20;;;2.10;;
357;SDS011;167;47.558;7.602;2023-12-14T07:02:20;2.67;;;2.53;;
357;SDS011;167;47.558;7.602;2023-12-14T07:04:45;2.90;;;2.70;;
357;SDS011;167;47.558;7.602;2023-12-14T07:07:12;2.33;;;2.23;;
357;SDS011;167;47.558;7.602;2023-12-14T07:09:38;2.33;;;2.23;;
357;SDS011;167;47.558;7.602;2023-12-14T07:12:04;3.40;;;2.93;;
357;SDS011;167;47.558;7.602;2023-12-14T07:14:30;2.90;;;2.60;;
357;SDS011;167;47.558;7.602;2023-12-14T07:16:56;2.10;;;2.00;;
357;SDS011;167;47.558;7.602;2023-12-14T07:19:22;2.47;;;2.37;;
357;SDS011;167;47.558;7.602;2023-12-14T07:21:48;2.77;;;2.57;;
357;SDS011;167;47.558;7.602;2023-12-14T07:24:14;2.70;;;2.60;;
357;SDS011;167;47.558;7.602;2023-12-14T07:26:40;2.43;;;2.33;;
357;SDS011;167;47.558;7.602;2023-12-14T07:29:06;4.00;;;2.20;;
357;SDS011;167;47.558;7.602;2023-12-14T07:31:32;3.00;;;2.80;;
357;SDS011;167;47.558;7.602;2023-12-14T07:33:59;3.20;;;3.00;;
357;SDS011;167;47.558;7.602;2023-12-14T07:36:25;2.43;;;2.33;;
357;SDS011;167;47.558;7.602;2023-12-14T07:38:51;2.60;;;2.40;;
357;SDS011;167;47.558;7.602;2023-12-14T07:41:17;2.93;;;2.67;;
357;SDS011;167;47.558;7.602;2023-12-14T07:43:43;2.90;;;2.70;;
357;SDS011;167;47.558;7.602;2023-12-14T07:46:09;3.03;;;2.73;;
357;SDS011;167;47.558;7.602;2023-12-14T07:48:35;2.00;;;1.90;;
357;SDS011;167;47.558;7.602;2023-12-14T07:51:01;3.17;;;2.77;;
357;SDS011;167;47.558;7.602;2023-12-14T07:53:27;1.90;;;1.80;;
357;SDS011;167;47.558;7.602;2023-12-14T07:55:53;1.90;;;1.80;;
357;SDS011;167;47.558;7.602;2023-12-14T07:58:19;2.47;;;2.27;;
357;SDS011;167;47.558;7.602;2023-12-14T08:00:46;2.47;;;2.37;;
357;SDS011;167;47.558;7.602;2023-12-14T08:03:12;1.93;;;1.83;;
357;SDS011;167;47.558;7.602;2023-12-14T08:05:38;2.50;;;2.40;;
357;SDS011;167;47.558;7.602;2023-12-14T08:08:04;2.47;;;2.37;;
357;SDS011;167;47.558;7.602;2023-12-14T08:10:30;2.00;;;1.90;;
357;SDS011;167;47.558;7.602;2023-12-14T08:12:57;2.47;;;2.37;;
357;SDS011;167;47.558;7.602;2023-12-14T08:15:23;2.50;;;2.40;;
357;SDS011;167;47.558;7.602;2023-12-14T08:17:49;1.70;;;1.47;;
357;SDS011;167;47.558;7.602;2023-12-14T08:20:15;3.37;;;2.87;;
357;SDS011;167;47.558;7.602;2023-12-14T08:22:41;2.13;;;2.03;;
357;SDS011;167;47.558;7.602;2023-12-14T08:25:10;3.17;;;1.83;;
357;SDS011;167;47.558;7.602;2023-12-14T08:27:37;2.53;;;1.93;;
357;SDS011;167;47.558;7.602;2023-12-14T08:30:03;2.33;;;2.10;;
357;SDS011;167;47.558;7.602;2023-12-14T08:32:29;1.77;;;1.67;;
357;SDS011;167;47.558;7.602;2023-12-14T08:34:55;1.83;;;1.73;;
357;SDS011;167;47.558;7.602;2023-12-14T08:37:21;1.77;;;1.67;;
357;SDS011;167;47.558;7.602;2023-12-14T08:39:47;2.00;;;1.90;;
357;SDS011;167;47.558;7.602;2023-12-14T08:42:13;2.90;;;1.80;;
357;SDS011;167;47.558;7.602;2023-12-14T08:44:39;1.80;;;1.80;;
357;SDS011;167;47.558;7.602;2023-12-14T08:47:05;1.60;;;1.50;;
357;SDS011;167;47.558;7.602;2023-12-14T08:49:31;2.23;;;2.00;;
357;SDS011;167;47.558;7.602;2023-12-14T08:51:57;1.97;;;1.87;;
357;SDS011;167;47.558;7.602;2023-12-14T08:54:23;2.13;;;2.03;;
357;SDS011;167;47.558;7.602;2023-12-14T08:56:49;1.53;;;1.53;;
357;SDS011;167;47.558;7.602;2023-12-14T08:59:15;2.03;;;1.93;;
357;SDS011;167;47.558;7.602;2023-12-14T09:01:41;1.80;;;1.70;;
357;SDS011;167;47.558;7.602;2023-12-14T09:04:07;3.00;;;1.80;;
357;SDS011;167;47.558;7.602;2023-12-14T09:06:33;1.30;;;1.30;;
357;SDS011;167;47.558;7.602;2023-12-14T09:08:59;2.47;;;1.97;;
357;SDS011;167;47.558;7.602;2023-12-14T09:11:25;2.03;;;1.87;;
357;SDS011;167;47.558;7.602;2023-12-14T09:13:51;1.80;;;1.70;;
357;SDS011;167;47.558;7.602;2023-12-14T09:16:17;1.73;;;1.63;;
357;SDS011;167;47.558;7.602;2023-12-14T09:18:43;1.50;;;1.30;;
357;SDS011;167;47.558;7.602;2023-12-14T09:21:09;2.07;;;1.97;;
357;SDS011;167;47.558;7.602;2023-12-14T09:23:35;1.20;;;1.10;;
357;SDS011;167;47.558;7.602;2023-12-14T09:26:01;1.20;;;1.20;;
357;SDS011;167;47.558;7.602;2023-12-14T09:28:27;1.23;;;1.10;;
357;SDS011;167;47.558;7.602;2023-12-14T09:30:53;1.10;;;1.10;;
357;SDS011;167;47.558;7.602;2023-12-14T09:33:19;1.40;;;1.30;;
357;SDS011;167;47.558;7.602;2023-12-14T09:35:45;1.40;;;1.40;;
357;SDS011;167;47.558;7.602;2023-12-14T09:38:11;1.33;;;1.30;;
357;SDS011;167;47.558;7.602;2023-12-14T09:40:40;1.93;;;1.70;;
357;SDS011;167;47.558;7.602;2023-12-14T09:43:06;1.23;;;1.23;;
357;SDS011;167;47.558;7.602;2023-12-14T09:45:33;1.53;;;1.43;;
357;SDS011;167;47.558;7.602;2023-12-14T09:48:00;1.30;;;1.30;;
357;SDS011;167;47.558;7.602;2023-12-14T09:50:26;0.93;;;0.93;;
357;SDS011;167;47.558;7.602;2023-12-14T09:52:52;1.40;;;1.30;;
357;SDS011;167;47.558;7.602;2023-12-14T09:55:18;1.40;;;1.30;;
357;SDS011;167;47.558;7.602;2023-12-14T09:57:44;1.30;;;1.30;;
357;SDS011;167;47.558;7.602;2023-12-14T10:00:10;1.03;;;1.00;;
357;SDS011;167;47.558;7.602;2023-12-14T10:02:39;1.17;;;1.07;;
357;SDS011;167;47.558;7.602;2023-12-14T10:05:06;0.87;;;0.87;;
357;SDS011;167;47.558;7.602;2023-12-14T10:07:35;3.13;;;0.90;;
357;SDS011;167;47.558;7.602;2023-12-14T10:10:11;1.23;;;1.23;;
357;SDS011;167;47.558;7.602;2023-12-14T10:12:51;1.03;;;1.03;;
357;SDS011;167;47.558;7.602;2023-12-14T10:15:20;1.20;;;1.20;;
357;SDS011;167;47.558;7.602;2023-12-14T10:17:50;0.90;;;0.90;;
357;SDS011;167;47.558;7.602;2023-12-14T10:20:19;0.80;;;0.80;;
357;SDS011;167;47.558;7.602;2023-12-14T10:22:49;0.97;;;0.90;;
357;SDS011;167;47.558;7.602;2023-12-14T10:25:15;1.20;;;1.17;;
357;SDS011;167;47.558;7.602;2023-12-14T10:27:41;1.03;;;0.90;;
357;SDS011;167;47.558;7.602;2023-12-14T10:30:07;1.63;;;1.53;;
357;SDS011;167;47.558;7.602;2023-12-14T10:32:37;1.20;;;1.20;;
357;SDS011;167;47.558;7.602;2023-12-14T10:35:03;1.10;;;1.10;;
357;SDS011;167;47.558;7.602;2023-12-14T10:37:29;0.97;;;0.97;;
357;SDS011;167;47.558;7.602;2023-12-14T10:39:55;1.03;;;0.93;;
357;SDS011;167;47.558;7.602;2023-12-14T10:42:21;1.43;;;1.33;;
357;SDS011;167;47.558;7.602;2023-12-14T10:44:50;1.80;;;1.70;;
357;SDS011;167;47.558;7.602;2023-12-14T10:47:18;5.60;;;1.40;;
357;SDS011;167;47.558;7.602;2023-12-14T10:49:46;1.10;;;0.83;;
357;SDS011;167;47.558;7.602;2023-12-14T10:52:14;0.77;;;0.77;;
357;SDS011;167;47.558;7.602;2023-12-14T10:54:40;1.77;;;1.20;;
357;SDS011;167;47.558;7.602;2023-12-14T10:57:07;1.37;;;1.20;;
357;SDS011;167;47.558;7.602;2023-12-14T10:59:34;3.43;;;3.13;;
357;SDS011;167;47.558;7.602;2023-12-14T11:02:00;2.20;;;2.10;;
357;SDS011;167;47.558;7.602;2023-12-14T11:04:53;1.47;;;1.47;;
357;SDS011;167;47.558;7.602;2023-12-14T11:07:24;1.70;;;1.57;;
357;SDS011;167;47.558;7.602;2023-12-14T11:10:05;1.00;;;1.00;;
357;SDS011;167;47.558;7.602;2023-12-14T11:12:33;1.00;;;1.00;;
357;SDS011;167;47.558;7.602;2023-12-14T11:14:59;1.20;;;1.20;;
357;SDS011;167;47.558;7.602;2023-12-14T11:17:25;1.97;;;1.13;;
357;SDS011;167;47.558;7.602;2023-12-14T11:19:54;1.00;;;1.00;;
357;SDS011;167;47.558;7.602;2023-12-14T11:22:23;1.43;;;1.33;;
357;SDS011;167;47.558;7.602;2023-12-14T11:24:54;1.23;;;1.23;;
357;SDS011;167;47.558;7.602;2023-12-14T11:27:20;1.10;;;1.10;;
357;SDS011;167;47.558;7.602;2023-12-14T11:29:52;1.37;;;1.33;;
357;SDS011;167;47.558;7.602;2023-12-14T11:32:18;1.03;;;1.03;;
357;SDS011;167;47.558;7.602;2023-12-14T11:34:48;1.00;;;1.00;;
357;SDS011;167;47.558;7.602;2023-12-14T11:37:14;1.30;;;1.30;;
357;SDS011;167;47.558;7.602;2023-12-14T11:39:40;0.93;;;0.93;;
357;SDS011;167;47.558;7.602;2023-12-14T11:42:06;1.20;;;1.20;;
357;SDS011;167;47.558;7.602;2023-12-14T11:44:33;1.10;;;1.10;;
357;SDS011;167;47.558;7.602;2023-12-14T11:47:00;1.27;;;1.17;;
357;SDS011;167;47.558;7.602;2023-12-14T11:49:26;1.00;;;1.00;;
357;SDS011;167;47.558;7.602;2023-12-14T11:51:52;1.27;;;1.17;;
357;SDS011;167;47.558;7.602;2023-12-14T11:54:20;0.93;;;0.93;;
357;SDS011;167;47.558;7.602;2023-12-14T11:56:49;1.10;;;1.10;;
357;SDS011;167;47.558;7.602;2023-12-14T11:59:16;1.17;;;1.07;;
357;SDS011;167;47.558;7.602;2023-12-14T12:01:55;1.37;;;1.30;;
357;SDS011;167;47.558;7.602;2023-12-14T12:04:22;1.27;;;1.27;;
357;SDS011;167;47.558;7.602;2023-12-14T12:06:48;1.60;;;1.50;;
357;SDS011;167;47.558;7.602;2023-12-14T12:09:14;1.13;;;1.13;;
357;SDS011;167;47.558;7.602;2023-12-14T12:11:42;1.30;;;1.20;;
357;SDS011;167;47.558;7.602;2023-12-14T12:14:08;1.40;;;1.40;;
357;SDS011;167;47.558;7.602;2023-12-14T12:16:36;1.43;;;1.33;;
357;SDS011;167;47.558;7.602;2023-12-14T12:19:01;2.03;;;1.10;;
357;SDS011;167;47.558;7.602;2023-12-14T12:21:27;1.60;;;1.50;;
357;SDS011;167;47.558;7.602;2023-12-14T12:23:53;1.40;;;1.33;;
357;SDS011;167;47.558;7.602;2023-12-14T12:26:19;1.40;;;1.30;;
357;SDS011;167;47.558;7.602;2023-12-14T12:28:45;1.77;;;1.67;;
357;SDS011;167;47.558;7.602;2023-12-14T12:31:13;1.17;;;1.17;;
357;SDS011;167;47.558;7.602;2023-12-14T12:33:39;1.67;;;1.57;;
357;SDS011;167;47.558;7.602;2023-12-14T12:36:05;1.40;;;1.30;;
357;SDS011;167;47.558;7.602;2023-12-14T12:38:31;1.97;;;1.87;;
357;SDS011;167;47.558;7.602;2023-12-14T12:40:57;1.10;;;1.10;;
357;SDS011;167;47.558;7.602;2023-12-14T12:43:25;1.50;;;1.40;;
357;SDS011;167;47.558;7.602;2023-12-14T12:45:51;3.23;;;1.40;;
357;SDS011;167;47.558;7.602;2023-12-14T12:48:17;1.27;;;1.27;;
357;SDS011;167;47.558;7.602;2023-12-14T12:50:43;1.37;;;1.30;;
357;SDS011;167;47.558;7.602;2023-12-14T12:53:09;1.60;;;1.50;;
357;SDS011;167;47.558;7.602;2023-12-14T12:55:35;1.67;;;1.60;;
357;SDS011;167;47.558;7.602;2023-12-14T12:58:01;2.33;;;2.23;;
357;SDS011;167;47.558;7.602;2023-12-14T13:00:30;1.47;;;1.47;;
357;SDS011;167;47.558;7.602;2023-12-14T13:02:56;2.17;;;2.07;;
357;SDS011;167;47.558;7.602;2023-12-14T13:05:22;1.63;;;1.53;;
357;SDS011;167;47.558;7.602;2023-12-14T13:07:49;2.13;;;2.03;;
357;SDS011;167;47.558;7.602;2023-12-14T13:10:15;2.40;;;2.20;;
357;SDS011;167;47.558;7.602;2023-12-14T13:12:44;1.87;;;1.77;;
357;SDS011;167;47.558;7.602;2023-12-14T13:15:09;2.10;;;2.00;;
357;SDS011;167;47.558;7.602;2023-12-14T13:17:35;2.73;;;2.13;;
357;SDS011;167;47.558;7.602;2023-12-14T13:20:02;2.30;;;2.20;;
357;SDS011;167;47.558;7.602;2023-12-14T13:22:28;2.10;;;2.03;;
357;SDS011;167;47.558;7.602;2023-12-14T13:24:54;1.93;;;1.83;;
357;SDS011;167;47.558;7.602;2023-12-14T13:27:20;2.17;;;2.07;;
357;SDS011;167;47.558;7.602;2023-12-14T13:29:46;2.40;;;2.30;;
357;SDS011;167;47.558;7.602;2023-12-14T13:32:12;2.43;;;2.33;;
357;SDS011;167;47.558;7.602;2023-12-14T13:34:38;6.13;;;3.20;;
357;SDS011;167;47.558;7.602;2023-12-14T13:37:04;3.07;;;2.20;;
357;SDS011;167;47.558;7.602;2023-12-14T13:39:31;3.93;;;2.40;;
357;SDS011;167;47.558;7.602;2023-12-14T13:41:59;2.50;;;2.40;;
357;SDS011;167;47.558;7.602;2023-12-14T13:44:25;2.10;;;2.00;;
357;SDS011;167;47.558;7.602;2023-12-14T13:46:51;2.03;;;1.93;;
357;SDS011;167;47.558;7.602;2023-12-14T13:49:17;3.00;;;2.80;;
357;SDS011;167;47.558;7.602;2023-12-14T13:51:43;2.90;;;2.67;;
357;SDS011;167;47.558;7.602;2023-12-14T13:54:09;2.70;;;2.50;;
357;SDS011;167;47.558;7.602;2023-12-14T13:56:35;2.20;;;2.10;;
357;SDS011;167;47.558;7.602;2023-12-14T13:59:01;2.63;;;2.43;;
357;SDS011;167;47.558;7.602;2023-12-14T14:01:27;2.90;;;2.70;;
357;SDS011;167;47.558;7.602;2023-12-14T14:03:53;2.70;;;2.50;;
357;SDS011;167;47.558;7.602;2023-12-14T14:06:19;2.90;;;2.73;;
357;SDS011;167;47.558;7.602;2023-12-14T14:08:48;2.63;;;2.53;;
357;SDS011;167;47.558;7.602;2023-12-14T14:11:14;4.23;;;2.70;;
357;SDS011;167;47.558;7.602;2023-12-14T14:13:40;3.37;;;3.10;;
357;SDS011;167;47.558;7.602;2023-12-14T14:16:06;2.47;;;2.37;;
357;SDS011;167;47.558;7.602;2023-12-14T14:18:32;3.17;;;2.87;;
357;SDS011;167;47.558;7.602;2023-12-14T14:20:58;3.63;;;3.43;;
357;SDS011;167;47.558;7.602;2023-12-14T14:23:26;3.50;;;3.00;;
357;SDS011;167;47.558;7.602;2023-12-14T14:25:52;3.30;;;3.00;;
357;SDS011;167;47.558;7.602;2023-12-14T14:28:21;2.67;;;2.57;;
357;SDS011;167;47.558;7.602;2023-12-14T14:30:47;3.67;;;3.47;;
357;SDS011;167;47.558;7.602;2023-12-14T14:33:14;3.43;;;3.23;;
357;SDS011;167;47.558;7.602;2023-12-14T14:35:44;3.27;;;3.07;;
357;SDS011;167;47.558;7.602;2023-12-14T14:38:10;16.80;;;15.10;;
357;SDS011;167;47.558;7.602;2023-12-14T14:40:36;3.90;;;3.60;;
357;SDS011;167;47.558;7.602;2023-12-14T14:43:03;3.40;;;3.20;;
357;SDS011;167;47.558;7.602;2023-12-14T14:45:29;3.70;;;3.40;;
357;SDS011;167;47.558;7.602;2023-12-14T14:47:55;3.20;;;3.00;;
357;SDS011;167;47.558;7.602;2023-12-14T14:50:21;4.23;;;3.30;;
357;SDS011;167;47.558;7.602;2023-12-14T14:52:47;2.90;;;2.80;;
357;SDS011;167;47.558;7.602;2023-12-14T14:55:13;3.27;;;3.00;;
357;SDS011;167;47.558;7.602;2023-12-14T14:57:40;3.00;;;2.90;;
357;SDS011;167;47.558;7.602;2023-12-14T15:00:06;3.40;;;2.93;;
357;SDS011;167;47.558;7.602;2023-12-14T15:02:32;3.27;;;2.97;;
357;SDS011;167;47.558;7.602;2023-12-14T15:04:58;3.30;;;3.03;;
357;SDS011;167;47.558;7.602;2023-12-14T15:07:24;3.67;;;3.40;;
357;SDS011;167;47.558;7.602;2023-12-14T15:09:50;3.40;;;3.10;;
357;SDS011;167;47.558;7.602;2023-12-14T15:12:16;3.47;;;3.27;;
357;SDS011;167;47.558;7.602;2023-12-14T15:14:42;3.00;;;2.80;;
357;SDS011;167;47.558;7.602;2023-12-14T15:17:09;3.00;;;2.83;;
357;SDS011;167;47.558;7.602;2023-12-14T15:19:35;3.67;;;3.37;;
357;SDS011;167;47.558;7.602;2023-12-14T15:22:01;4.07;;;3.87;;
357;SDS011;167;47.558;7.602;2023-12-14T15:24:27;3.00;;;2.80;;
357;SDS011;167;47.558;7.602;2023-12-14T15:26:53;4.10;;;3.80;;
357;SDS011;167;47.558;7.602;2023-12-14T15:29:19;3.30;;;3.00;;
357;SDS011;167;47.558;7.602;2023-12-14T15:31:46;3.50;;;3.30;;
357;SDS011;167;47.558;7.602;2023-12-14T15:34:14;3.33;;;3.00;;
357;SDS011;167;47.558;7.602;2023-12-14T15:36:40;4.87;;;2.77;;
357;SDS011;167;47.558;7.602;2023-12-14T15:39:06;3.47;;;3.17;;